sensor_id;sensor_type;location;lat;lon;timestamp;pressure;altitude;pressure_sealevel;temperature;humidity
8160;BME280;27404;52.398;9.646;2023-07-13T00:00:02;100637.19;;;16.43;100.00
8160;BME280;27404;52.398;9.646;2023-07-13T00:02:29;100635.53;;;16.42;100.00
8160;BME280;27404;52.398;9.646;2023-07-13T00:04:55;100633.34;;;16.34;100.00
8160;BME280;27404;52.398;9.646;2023-07-13T00:07:20;100642.44;;;16.34;100.00
8160;BME280;27404;52.398;9.646;2023-07-13T00:09:46;100643.56;;;16.33;100.00
8160;BME280;27404;52.398;9.646;2023-07-13T00:12:27;100641.59;;;16.28;100.00
8160;BME280;27404;52.398;9.646;2023-07-13T00:14:56;100641.03;;;16.26;100.00
8160;BME280;27404;52.398;9.646;2023-07-13T00:17:23;100641.88;;;16.27;100.00
8160;BME280;27404;52.398;9.646;2023-07-13T00:19:48;100642.16;;;16.31;100.00
8160;BME280;27404;52.398;9.646;2023-07-13T00:22:14;100649.63;;;16.35;100.00
8160;BME280;27404;52.398;9.646;2023-07-13T00:24:39;100643.81;;;16.47;100.00
8160;BME280;27404;52.398;9.646;2023-07-13T00:27:08;100653.22;;;16.51;100.00
8160;BME280;27404;52.398;9.646;2023-07-13T00:29:35;100660.41;;;16.57;100.00
8160;BME280;27404;52.398;9.646;2023-07-13T00:32:03;100654.88;;;16.63;100.00
8160;BME280;27404;52.398;9.646;2023-07-13T00:34:29;100655.13;;;16.66;100.00
8160;BME280;27404;52.398;9.646;2023-07-13T00:36:54;100648.50;;;16.67;100.00
8160;BME280;27404;52.398;9.646;2023-07-13T00:39:19;100649.06;;;16.69;100.00
8160;BME280;27404;52.398;9.646;2023-07-13T00:41:46;100648.50;;;16.67;100.00
8160;BME280;27404;52.398;9.646;2023-07-13T00:44:15;100640.78;;;16.69;100.00
8160;BME280;27404;52.398;9.646;2023-07-13T00:46:41;100650.72;;;16.65;100.00
8160;BME280;27404;52.398;9.646;2023-07-13T00:49:10;100644.38;;;16.60;100.00
8160;BME280;27404;52.398;9.646;2023-07-13T00:51:40;100645.19;;;16.60;100.00
8160;BME280;27404;52.398;9.646;2023-07-13T00:54:11;100654.59;;;16.54;100.00
8160;BME280;27404;52.398;9.646;2023-07-13T00:56:37;100649.91;;;16.49;100.00
8160;BME280;27404;52.398;9.646;2023-07-13T00:59:05;100651.00;;;16.48;100.00
8160;BME280;27404;52.398;9.646;2023-07-13T01:01:32;100650.75;;;16.45;100.00
8160;BME280;27404;52.398;9.646;2023-07-13T01:03:57;100644.66;;;16.37;100.00
8160;BME280;27404;52.398;9.646;2023-07-13T01:06:22;100644.34;;;16.23;100.00
8160;BME280;27404;52.398;9.646;2023-07-13T01:08:48;100642.16;;;16.15;100.00
8160;BME280;27404;52.398;9.646;2023-07-13T01:11:18;100638.00;;;16.07;100.00
8160;BME280;27404;52.398;9.646;2023-07-13T01:13:44;100631.34;;;16.03;100.00
8160;BME280;27404;52.398;9.646;2023-07-13T01:16:24;100633.53;;;15.96;100.00
8160;BME280;27404;52.398;9.646;2023-07-13T01:18:49;100637.69;;;15.93;100.00
8160;BME280;27404;52.398;9.646;2023-07-13T01:21:15;100643.69;;;15.85;100.00
8160;BME280;27404;52.398;9.646;2023-07-13T01:23:40;100645.09;;;15.82;100.00
8160;BME280;27404;52.398;9.646;2023-07-13T01:26:06;100638.44;;;15.78;100.00
8160;BME280;27404;52.398;9.646;2023-07-13T01:28:31;100649.47;;;15.78;100.00
8160;BME280;27404;52.398;9.646;2023-07-13T01:31:02;100634.03;;;15.72;100.00
8160;BME280;27404;52.398;9.646;2023-07-13T01:33:28;100646.38;;;15.64;100.00
8160;BME280;27404;52.398;9.646;2023-07-13T01:35:54;100643.91;;;15.63;100.00
8160;BME280;27404;52.398;9.646;2023-07-13T01:38:24;100638.38;;;15.58;100.00
8160;BME280;27404;52.398;9.646;2023-07-13T01:40:51;100644.69;;;15.53;100.00
8160;BME280;27404;52.398;9.646;2023-07-13T01:43:17;100645.78;;;15.52;100.00
8160;BME280;27404;52.398;9.646;2023-07-13T01:45:43;100657.59;;;15.47;100.00
8160;BME280;27404;52.398;9.646;2023-07-13T01:48:09;100652.38;;;15.46;100.00
8160;BME280;27404;52.398;9.646;2023-07-13T01:50:35;100659.22;;;15.43;100.00
8160;BME280;27404;52.398;9.646;2023-07-13T01:53:01;100652.06;;;15.42;100.00
8160;BME280;27404;52.398;9.646;2023-07-13T01:55:28;100652.91;;;15.43;100.00
8160;BME280;27404;52.398;9.646;2023-07-13T01:57:53;100650.09;;;15.32;100.00
8160;BME280;27404;52.398;9.646;2023-07-13T02:00:19;100653.09;;;15.31;100.00
8160;BME280;27404;52.398;9.646;2023-07-13T02:02:44;100655.59;;;15.27;100.00
8160;BME280;27404;52.398;9.646;2023-07-13T02:05:11;100664.34;;;15.19;100.00
8160;BME280;27404;52.398;9.646;2023-07-13T02:07:37;100671.25;;;15.21;100.00
8160;BME280;27404;52.398;9.646;2023-07-13T02:10:03;100663.50;;;15.13;100.00
8160;BME280;27404;52.398;9.646;2023-07-13T02:12:28;100670.91;;;15.13;100.00
8160;BME280;27404;52.398;9.646;2023-07-13T02:14:54;100671.44;;;15.09;100.00
8160;BME280;27404;52.398;9.646;2023-07-13T02:17:19;100662.31;;;15.04;100.00
8160;BME280;27404;52.398;9.646;2023-07-13T02:19:44;100668.34;;;15.01;100.00
8160;BME280;27404;52.398;9.646;2023-07-13T02:22:10;100662.00;;;15.00;100.00
8160;BME280;27404;52.398;9.646;2023-07-13T02:24:35;100666.94;;;14.98;100.00
8160;BME280;27404;52.398;9.646;2023-07-13T02:27:01;100665.81;;;14.94;100.00
8160;BME280;27404;52.398;9.646;2023-07-13T02:29:26;100671.06;;;14.95;100.00
8160;BME280;27404;52.398;9.646;2023-07-13T02:31:52;100669.09;;;14.91;100.00
8160;BME280;27404;52.398;9.646;2023-07-13T02:34:17;100670.19;;;14.85;100.00
8160;BME280;27404;52.398;9.646;2023-07-13T02:36:43;100674.56;;;14.80;100.00
8160;BME280;27404;52.398;9.646;2023-07-13T02:39:08;100677.88;;;14.83;100.00
8160;BME280;27404;52.398;9.646;2023-07-13T02:41:34;100683.34;;;14.77;100.00
8160;BME280;27404;52.398;9.646;2023-07-13T02:43:59;100686.59;;;14.74;100.00
8160;BME280;27404;52.398;9.646;2023-07-13T02:46:33;100681.09;;;14.74;100.00
8160;BME280;27404;52.398;9.646;2023-07-13T02:49:00;100672.84;;;14.74;100.00
8160;BME280;27404;52.398;9.646;2023-07-13T02:51:26;100675.03;;;14.72;100.00
8160;BME280;27404;52.398;9.646;2023-07-13T02:53:51;100673.88;;;14.68;100.00
8160;BME280;27404;52.398;9.646;2023-07-13T02:56:21;100665.59;;;14.68;100.00
8160;BME280;27404;52.398;9.646;2023-07-13T02:58:47;100665.59;;;14.68;100.00
8160;BME280;27404;52.398;9.646;2023-07-13T03:01:13;100671.13;;;14.68;100.00
8160;BME280;27404;52.398;9.646;2023-07-13T03:03:43;100663.19;;;14.72;100.00
8160;BME280;27404;52.398;9.646;2023-07-13T03:06:09;100670.66;;;14.76;100.00
8160;BME280;27404;52.398;9.646;2023-07-13T03:08:34;100664.88;;;14.78;100.00
8160;BME280;27404;52.398;9.646;2023-07-13T03:11:03;100664.06;;;14.77;100.00
8160;BME280;27404;52.398;9.646;2023-07-13T03:13:30;100668.16;;;14.75;100.00
8160;BME280;27404;52.398;9.646;2023-07-13T03:15:56;100669.56;;;14.77;100.00
8160;BME280;27404;52.398;9.646;2023-07-13T03:18:22;100675.16;;;14.88;100.00
8160;BME280;27404;52.398;9.646;2023-07-13T03:20:50;100670.56;;;14.99;100.00
8160;BME280;27404;52.398;9.646;2023-07-13T03:23:16;100667.31;;;15.07;100.00
8160;BME280;27404;52.398;9.646;2023-07-13T03:25:42;100668.72;;;15.15;100.00
8160;BME280;27404;52.398;9.646;2023-07-13T03:28:08;100671.25;;;15.21;100.00
8160;BME280;27404;52.398;9.646;2023-07-13T03:30:33;100686.97;;;15.26;100.00
8160;BME280;27404;52.398;9.646;2023-07-13T03:32:59;100675.09;;;15.25;100.00
8160;BME280;27404;52.398;9.646;2023-07-13T03:35:24;100675.88;;;15.16;100.00
8160;BME280;27404;52.398;9.646;2023-07-13T03:37:49;100677.25;;;15.13;100.00
8160;BME280;27404;52.398;9.646;2023-07-13T03:40:16;100670.38;;;15.16;100.00
8160;BME280;27404;52.398;9.646;2023-07-13T03:42:42;100678.66;;;15.21;100.00
8160;BME280;27404;52.398;9.646;2023-07-13T03:45:08;100671.53;;;15.25;100.00
8160;BME280;27404;52.398;9.646;2023-07-13T03:47:33;100679.56;;;15.32;100.00
8160;BME280;27404;52.398;9.646;2023-07-13T03:49:58;100681.81;;;15.40;100.00
8160;BME280;27404;52.398;9.646;2023-07-13T03:52:24;100672.78;;;15.50;100.00
8160;BME280;27404;52.398;9.646;2023-07-13T03:54:49;100682.75;;;15.66;100.00
8160;BME280;27404;52.398;9.646;2023-07-13T03:57:15;100674.25;;;15.73;100.00
8160;BME280;27404;52.398;9.646;2023-07-13T03:59:40;100677.38;;;15.87;100.00
8160;BME280;27404;52.398;9.646;2023-07-13T04:02:06;100684.28;;;16.00;100.00
8160;BME280;27404;52.398;9.646;2023-07-13T04:04:32;100678.81;;;16.10;100.00
8160;BME280;27404;52.398;9.646;2023-07-13T04:06:57;100679.38;;;16.23;100.00
8160;BME280;27404;52.398;9.646;2023-07-13T04:09:24;100680.53;;;16.37;100.00
8160;BME280;27404;52.398;9.646;2023-07-13T04:11:49;100681.66;;;16.52;100.00
8160;BME280;27404;52.398;9.646;2023-07-13T04:14:15;100681.91;;;16.61;100.00
8160;BME280;27404;52.398;9.646;2023-07-13T04:16:41;100679.72;;;16.57;100.00
8160;BME280;27404;52.398;9.646;2023-07-13T04:19:08;100684.13;;;16.53;100.00
8160;BME280;27404;52.398;9.646;2023-07-13T04:21:35;100689.38;;;16.55;100.00
8160;BME280;27404;52.398;9.646;2023-07-13T04:24:01;100702.88;;;16.56;100.00
8160;BME280;27404;52.398;9.646;2023-07-13T04:26:28;100704.00;;;16.61;100.00
8160;BME280;27404;52.398;9.646;2023-07-13T04:28:54;100692.97;;;16.55;100.00
8160;BME280;27404;52.398;9.646;2023-07-13T04:31:20;100688.81;;;16.58;100.00
8160;BME280;27404;52.398;9.646;2023-07-13T04:33:46;100688.81;;;16.63;100.00
8160;BME280;27404;52.398;9.646;2023-07-13T04:36:11;100689.34;;;16.65;100.00
8160;BME280;27404;52.398;9.646;2023-07-13T04:38:37;100690.47;;;16.64;100.00
8160;BME280;27404;52.398;9.646;2023-07-13T04:41:05;100702.06;;;16.82;100.00
8160;BME280;27404;52.398;9.646;2023-07-13T04:43:32;100700.69;;;17.21;100.00
8160;BME280;27404;52.398;9.646;2023-07-13T04:46:06;100701.19;;;18.94;100.00
8160;BME280;27404;52.398;9.646;2023-07-13T04:48:32;100704.66;;;21.31;100.00
8160;BME280;27404;52.398;9.646;2023-07-13T04:50:58;100708.03;;;23.08;100.00
8160;BME280;27404;52.398;9.646;2023-07-13T04:53:24;100719.47;;;24.72;85.81
8160;BME280;27404;52.398;9.646;2023-07-13T04:55:50;100717.75;;;26.01;74.98
8160;BME280;27404;52.398;9.646;2023-07-13T04:58:15;100730.19;;;27.31;67.90
8160;BME280;27404;52.398;9.646;2023-07-13T05:00:41;100723.03;;;27.21;62.02
8160;BME280;27404;52.398;9.646;2023-07-13T05:03:06;100730.56;;;25.81;66.48
8160;BME280;27404;52.398;9.646;2023-07-13T05:05:32;100729.75;;;25.33;71.92
8160;BME280;27404;52.398;9.646;2023-07-13T05:07:58;100726.25;;;24.88;72.41
8160;BME280;27404;52.398;9.646;2023-07-13T05:10:23;100721.94;;;24.64;74.74
8160;BME280;27404;52.398;9.646;2023-07-13T05:12:49;100718.56;;;23.83;79.34
8160;BME280;27404;52.398;9.646;2023-07-13T05:15:15;100719.06;;;23.85;80.78
8160;BME280;27404;52.398;9.646;2023-07-13T05:17:41;100725.03;;;25.16;76.35
8160;BME280;27404;52.398;9.646;2023-07-13T05:20:08;100728.78;;;27.25;65.48
8160;BME280;27404;52.398;9.646;2023-07-13T05:22:34;100729.06;;;27.82;60.41
8160;BME280;27404;52.398;9.646;2023-07-13T05:25:01;100739.28;;;29.69;53.93
8160;BME280;27404;52.398;9.646;2023-07-13T05:27:27;100733.25;;;30.78;48.46
8160;BME280;27404;52.398;9.646;2023-07-13T05:29:53;100737.91;;;31.56;44.88
8160;BME280;27404;52.398;9.646;2023-07-13T05:32:18;100748.72;;;31.27;43.54
8160;BME280;27404;52.398;9.646;2023-07-13T05:34:44;100746.28;;;32.26;41.71
8160;BME280;27404;52.398;9.646;2023-07-13T05:37:09;100748.59;;;33.57;37.87
8160;BME280;27404;52.398;9.646;2023-07-13T05:39:35;100752.75;;;34.23;36.30
8160;BME280;27404;52.398;9.646;2023-07-13T05:42:01;100764.44;;;34.99;34.61
8160;BME280;27404;52.398;9.646;2023-07-13T05:44:27;100752.38;;;33.72;35.37
8160;BME280;27404;52.398;9.646;2023-07-13T05:46:53;100760.75;;;33.16;35.05
8160;BME280;27404;52.398;9.646;2023-07-13T05:49:20;100768.09;;;34.11;34.86
8160;BME280;27404;52.398;9.646;2023-07-13T05:51:45;100769.38;;;35.27;32.84
8160;BME280;27404;52.398;9.646;2023-07-13T05:54:11;100763.31;;;32.91;34.99
8160;BME280;27404;52.398;9.646;2023-07-13T05:56:36;100765.53;;;32.17;36.83
8160;BME280;27404;52.398;9.646;2023-07-13T05:59:01;100771.94;;;33.88;34.77
8160;BME280;27404;52.398;9.646;2023-07-13T06:01:29;100763.66;;;32.86;35.66
8160;BME280;27404;52.398;9.646;2023-07-13T06:03:55;100779.13;;;34.31;33.77
8160;BME280;27404;52.398;9.646;2023-07-13T06:06:20;100781.19;;;35.80;31.94
8160;BME280;27404;52.398;9.646;2023-07-13T06:08:46;100777.75;;;37.43;29.35
8160;BME280;27404;52.398;9.646;2023-07-13T06:11:17;100777.91;;;35.24;30.30
8160;BME280;27404;52.398;9.646;2023-07-13T06:13:43;100773.47;;;35.52;30.33
8160;BME280;27404;52.398;9.646;2023-07-13T06:16:08;100772.69;;;35.69;30.49
8160;BME280;27404;52.398;9.646;2023-07-13T06:18:35;100769.31;;;31.98;34.85
8160;BME280;27404;52.398;9.646;2023-07-13T06:21:06;100763.94;;;30.80;39.70
8160;BME280;27404;52.398;9.646;2023-07-13T06:23:32;100771.53;;;32.12;37.62
8160;BME280;27404;52.398;9.646;2023-07-13T06:25:58;100776.59;;;31.52;37.85
8160;BME280;27404;52.398;9.646;2023-07-13T06:28:23;100770.94;;;30.14;40.48
8160;BME280;27404;52.398;9.646;2023-07-13T06:30:48;100780.66;;;30.53;41.38
8160;BME280;27404;52.398;9.646;2023-07-13T06:33:14;100780.50;;;29.94;40.52
8160;BME280;27404;52.398;9.646;2023-07-13T06:35:39;100772.94;;;29.34;41.85
8160;BME280;27404;52.398;9.646;2023-07-13T06:38:05;100783.53;;;29.53;42.89
8160;BME280;27404;52.398;9.646;2023-07-13T06:40:30;100778.03;;;30.99;40.12
8160;BME280;27404;52.398;9.646;2023-07-13T06:42:56;100785.34;;;30.09;40.91
8160;BME280;27404;52.398;9.646;2023-07-13T06:45:22;100789.66;;;32.64;37.12
8160;BME280;27404;52.398;9.646;2023-07-13T06:47:48;100790.66;;;32.49;36.58
8160;BME280;27404;52.398;9.646;2023-07-13T06:50:15;100793.47;;;31.72;37.84
8160;BME280;27404;52.398;9.646;2023-07-13T06:52:40;100787.56;;;30.36;38.17
8160;BME280;27404;52.398;9.646;2023-07-13T06:55:06;100787.09;;;29.21;41.76
8160;BME280;27404;52.398;9.646;2023-07-13T06:57:31;100797.31;;;27.70;45.42
8160;BME280;27404;52.398;9.646;2023-07-13T06:59:57;100799.72;;;25.89;50.67
8160;BME280;27404;52.398;9.646;2023-07-13T07:02:22;100793.66;;;24.69;56.10
8160;BME280;27404;52.398;9.646;2023-07-13T07:04:48;100778.94;;;23.16;68.40
8160;BME280;27404;52.398;9.646;2023-07-13T07:07:13;100800.66;;;22.45;75.05
8160;BME280;27404;52.398;9.646;2023-07-13T07:09:39;100798.47;;;24.02;69.50
8160;BME280;27404;52.398;9.646;2023-07-13T07:12:04;100790.41;;;25.67;61.75
8160;BME280;27404;52.398;9.646;2023-07-13T07:14:30;100809.59;;;27.90;52.77
8160;BME280;27404;52.398;9.646;2023-07-13T07:16:56;100795.25;;;29.55;46.63
8160;BME280;27404;52.398;9.646;2023-07-13T07:19:24;100796.66;;;26.84;51.16
8160;BME280;27404;52.398;9.646;2023-07-13T07:21:49;100800.25;;;28.23;49.50
8160;BME280;27404;52.398;9.646;2023-07-13T07:24:15;100795.50;;;29.05;47.34
8160;BME280;27404;52.398;9.646;2023-07-13T07:26:41;100798.94;;;28.08;46.92
8160;BME280;27404;52.398;9.646;2023-07-13T07:29:06;100799.66;;;27.34;51.36
8160;BME280;27404;52.398;9.646;2023-07-13T07:31:32;100801.19;;;25.86;56.20
8160;BME280;27404;52.398;9.646;2023-07-13T07:33:57;100792.75;;;25.95;58.14
8160;BME280;27404;52.398;9.646;2023-07-13T07:36:22;100798.91;;;26.49;57.06
8160;BME280;27404;52.398;9.646;2023-07-13T07:38:48;100790.63;;;26.95;54.41
8160;BME280;27404;52.398;9.646;2023-07-13T07:41:14;100786.69;;;25.93;57.37
8160;BME280;27404;52.398;9.646;2023-07-13T07:43:39;100795.63;;;26.16;56.63
8160;BME280;27404;52.398;9.646;2023-07-13T07:46:04;100788.50;;;25.41;61.16
8160;BME280;27404;52.398;9.646;2023-07-13T07:48:30;100793.16;;;25.11;60.25
8160;BME280;27404;52.398;9.646;2023-07-13T07:50:56;100783.25;;;24.52;65.44
8160;BME280;27404;52.398;9.646;2023-07-13T07:53:22;100786.56;;;23.87;66.06
8160;BME280;27404;52.398;9.646;2023-07-13T07:55:48;100791.72;;;24.03;65.81
8160;BME280;27404;52.398;9.646;2023-07-13T07:58:13;100791.53;;;23.67;70.61
8160;BME280;27404;52.398;9.646;2023-07-13T08:00:39;100796.19;;;23.41;74.66
8160;BME280;27404;52.398;9.646;2023-07-13T08:03:04;100792.88;;;22.93;76.29
8160;BME280;27404;52.398;9.646;2023-07-13T08:05:29;100800.50;;;23.47;76.80
8160;BME280;27404;52.398;9.646;2023-07-13T08:07:55;100791.91;;;23.75;74.51
8160;BME280;27404;52.398;9.646;2023-07-13T08:10:20;100794.25;;;23.81;75.83
8160;BME280;27404;52.398;9.646;2023-07-13T08:12:46;100797.09;;;23.59;73.79
8160;BME280;27404;52.398;9.646;2023-07-13T08:15:13;100786.22;;;23.03;78.79
8160;BME280;27404;52.398;9.646;2023-07-13T08:17:39;100801.38;;;23.11;78.92
8160;BME280;27404;52.398;9.646;2023-07-13T08:20:05;100796.22;;;22.44;85.60
8160;BME280;27404;52.398;9.646;2023-07-13T08:22:30;100787.16;;;22.11;88.41
8160;BME280;27404;52.398;9.646;2023-07-13T08:24:59;100791.06;;;22.24;89.79
8160;BME280;27404;52.398;9.646;2023-07-13T08:27:26;100791.41;;;22.08;90.13
8160;BME280;27404;52.398;9.646;2023-07-13T08:29:53;100796.09;;;22.22;92.49
8160;BME280;27404;52.398;9.646;2023-07-13T08:32:20;100793.84;;;22.38;90.88
8160;BME280;27404;52.398;9.646;2023-07-13T08:34:46;100793.44;;;22.44;88.95
8160;BME280;27404;52.398;9.646;2023-07-13T08:37:11;100800.66;;;22.45;88.37
8160;BME280;27404;52.398;9.646;2023-07-13T08:39:37;100806.91;;;22.65;91.62
8160;BME280;27404;52.398;9.646;2023-07-13T08:44:40;100798.56;;;22.88;88.91
8160;BME280;27404;52.398;9.646;2023-07-13T08:47:11;100799.66;;;23.01;89.61
8160;BME280;27404;52.398;9.646;2023-07-13T08:49:39;100809.38;;;23.26;86.53
8160;BME280;27404;52.398;9.646;2023-07-13T08:52:15;100798.56;;;23.11;86.51
8160;BME280;27404;52.398;9.646;2023-07-13T08:54:48;100801.69;;;23.09;84.64
8160;BME280;27404;52.398;9.646;2023-07-13T08:57:19;100803.41;;;23.42;84.60
8160;BME280;27404;52.398;9.646;2023-07-13T08:59:46;100803.69;;;23.31;85.37
8160;BME280;27404;52.398;9.646;2023-07-13T09:05:29;100795.22;;;23.00;83.23
8160;BME280;27404;52.398;9.646;2023-07-13T09:08:16;100796.66;;;22.74;86.30
8160;BME280;27404;52.398;9.646;2023-07-13T09:10:46;100798.78;;;23.37;84.78
8160;BME280;27404;52.398;9.646;2023-07-13T09:16:17;100807.13;;;22.27;89.95
8160;BME280;27404;52.398;9.646;2023-07-13T09:18:48;100795.81;;;22.23;92.44
8160;BME280;27404;52.398;9.646;2023-07-13T09:21:18;100804.59;;;22.81;90.71
8160;BME280;27404;52.398;9.646;2023-07-13T09:23:47;100810.44;;;22.93;84.55
8160;BME280;27404;52.398;9.646;2023-07-13T09:26:16;100800.84;;;23.08;80.76
8160;BME280;27404;52.398;9.646;2023-07-13T09:28:45;100803.59;;;23.00;81.94
8160;BME280;27404;52.398;9.646;2023-07-13T09:31:15;100805.94;;;23.06;79.13
8160;BME280;27404;52.398;9.646;2023-07-13T09:33:42;100799.28;;;23.39;80.22
8160;BME280;27404;52.398;9.646;2023-07-13T09:44:38;100803.34;;;23.10;81.29
8160;BME280;27404;52.398;9.646;2023-07-13T09:47:16;100816.13;;;22.52;82.73
8160;BME280;27404;52.398;9.646;2023-07-13T09:49:42;100813.84;;;22.54;87.34
8160;BME280;27404;52.398;9.646;2023-07-13T09:52:15;100810.38;;;22.71;85.76
8160;BME280;27404;52.398;9.646;2023-07-13T09:54:45;100800.59;;;22.73;84.96
8160;BME280;27404;52.398;9.646;2023-07-13T09:57:18;100804.44;;;23.23;85.03
8160;BME280;27404;52.398;9.646;2023-07-13T09:59:48;100810.78;;;23.38;77.14
8160;BME280;27404;52.398;9.646;2023-07-13T10:02:40;100805.75;;;23.03;77.57
8160;BME280;27404;52.398;9.646;2023-07-13T10:05:13;100805.56;;;23.22;77.79
8160;BME280;27404;52.398;9.646;2023-07-13T10:07:42;100808.44;;;23.62;75.86
8160;BME280;27404;52.398;9.646;2023-07-13T10:10:21;100806.75;;;23.52;74.19
8160;BME280;27404;52.398;9.646;2023-07-13T10:12:48;100801.13;;;23.44;73.03
8160;BME280;27404;52.398;9.646;2023-07-13T10:15:17;100814.63;;;23.50;75.80
8160;BME280;27404;52.398;9.646;2023-07-13T10:17:44;100808.78;;;23.38;74.84
8160;BME280;27404;52.398;9.646;2023-07-13T10:20:10;100818.38;;;23.46;75.97
8160;BME280;27404;52.398;9.646;2023-07-13T10:22:51;100804.97;;;23.57;74.71
8160;BME280;27404;52.398;9.646;2023-07-13T10:25:22;100816.28;;;23.60;74.11
8160;BME280;27404;52.398;9.646;2023-07-13T10:27:51;100804.41;;;23.77;72.75
8160;BME280;27404;52.398;9.646;2023-07-13T10:30:29;100804.59;;;23.81;72.42
8160;BME280;27404;52.398;9.646;2023-07-13T10:33:03;100810.06;;;23.63;74.00
8160;BME280;27404;52.398;9.646;2023-07-13T10:35:30;100799.84;;;23.81;71.86
8160;BME280;27404;52.398;9.646;2023-07-13T10:38:10;100811.28;;;23.71;71.79
8160;BME280;27404;52.398;9.646;2023-07-13T10:40:39;100807.59;;;23.93;71.58
8160;BME280;27404;52.398;9.646;2023-07-13T10:43:39;100803.97;;;23.52;72.18
8160;BME280;27404;52.398;9.646;2023-07-13T10:46:07;100814.16;;;23.12;73.60
8160;BME280;27404;52.398;9.646;2023-07-13T10:48:35;100808.31;;;22.99;76.15
8160;BME280;27404;52.398;9.646;2023-07-13T10:51:03;100818.88;;;22.66;75.14
8160;BME280;27404;52.398;9.646;2023-07-13T10:53:34;100809.13;;;22.77;78.47
8160;BME280;27404;52.398;9.646;2023-07-13T10:56:22;100812.72;;;22.91;78.60
8160;BME280;27404;52.398;9.646;2023-07-13T11:02:10;100812.66;;;22.69;82.25
8160;BME280;27404;52.398;9.646;2023-07-13T11:04:46;100817.78;;;22.89;78.23
8160;BME280;27404;52.398;9.646;2023-07-13T11:07:31;100829.31;;;23.19;77.70
8160;BME280;27404;52.398;9.646;2023-07-13T11:10:57;100823.97;;;23.23;74.31
8160;BME280;27404;52.398;9.646;2023-07-13T11:18:49;100814.78;;;23.08;76.48
8160;BME280;27404;52.398;9.646;2023-07-13T11:21:20;100819.03;;;22.83;77.95
8160;BME280;27404;52.398;9.646;2023-07-13T11:23:54;100814.00;;;23.08;79.36
8160;BME280;27404;52.398;9.646;2023-07-13T11:31:53;100815.31;;;23.11;76.07
8160;BME280;27404;52.398;9.646;2023-07-13T11:34:36;100809.44;;;23.35;71.59
8160;BME280;27404;52.398;9.646;2023-07-13T11:37:03;100811.81;;;23.50;69.92
8160;BME280;27404;52.398;9.646;2023-07-13T11:39:32;100802.66;;;23.50;71.38
8160;BME280;27404;52.398;9.646;2023-07-13T11:42:05;100795.94;;;23.91;70.42
8160;BME280;27404;52.398;9.646;2023-07-13T11:44:33;100804.44;;;23.86;72.83
8160;BME280;27404;52.398;9.646;2023-07-13T11:47:08;100794.91;;;23.47;68.29
8160;BME280;27404;52.398;9.646;2023-07-13T11:49:42;100797.63;;;23.70;67.62
8160;BME280;27404;52.398;9.646;2023-07-13T11:52:12;100794.13;;;23.95;68.10
8160;BME280;27404;52.398;9.646;2023-07-13T11:54:51;100807.72;;;24.20;66.45
8160;BME280;27404;52.398;9.646;2023-07-13T12:00:03;100806.88;;;23.47;65.57
8160;BME280;27404;52.398;9.646;2023-07-13T12:02:43;100805.38;;;23.41;69.41
8160;BME280;27404;52.398;9.646;2023-07-13T12:05:14;100803.28;;;23.24;75.11
8160;BME280;27404;52.398;9.646;2023-07-13T12:07:41;100805.63;;;23.62;78.33
8160;BME280;27404;52.398;9.646;2023-07-13T12:10:24;100805.88;;;23.43;71.92
8160;BME280;27404;52.398;9.646;2023-07-13T12:12:56;100805.91;;;23.52;72.45
8160;BME280;27404;52.398;9.646;2023-07-13T12:15:27;100800.91;;;23.63;70.26
8160;BME280;27404;52.398;9.646;2023-07-13T12:17:54;100802.47;;;23.55;72.44
8160;BME280;27404;52.398;9.646;2023-07-13T12:20:26;100808.88;;;23.24;68.04
8160;BME280;27404;52.398;9.646;2023-07-13T12:22:52;100806.91;;;23.56;69.03
8160;BME280;27404;52.398;9.646;2023-07-13T12:25:19;100810.28;;;23.67;66.27
8160;BME280;27404;52.398;9.646;2023-07-13T12:27:49;100812.06;;;23.63;66.63
8160;BME280;27404;52.398;9.646;2023-07-13T12:30:32;100810.41;;;23.30;69.70
8160;BME280;27404;52.398;9.646;2023-07-13T12:33:08;100814.03;;;22.71;73.87
8160;BME280;27404;52.398;9.646;2023-07-13T12:35:47;100806.00;;;22.92;74.33
8160;BME280;27404;52.398;9.646;2023-07-13T12:38:14;100797.94;;;22.91;73.42
8160;BME280;27404;52.398;9.646;2023-07-13T12:40:43;100798.63;;;23.19;72.97
8160;BME280;27404;52.398;9.646;2023-07-13T12:43:13;100795.41;;;23.80;71.89
8160;BME280;27404;52.398;9.646;2023-07-13T12:46:03;100799.34;;;23.88;73.76
8160;BME280;27404;52.398;9.646;2023-07-13T12:48:37;100804.69;;;23.67;70.07
8160;BME280;27404;52.398;9.646;2023-07-13T12:51:03;100804.75;;;23.53;66.96
8160;BME280;27404;52.398;9.646;2023-07-13T12:53:30;100811.44;;;23.43;68.23
8160;BME280;27404;52.398;9.646;2023-07-13T12:56:02;100811.59;;;23.15;69.26
8160;BME280;27404;52.398;9.646;2023-07-13T12:58:41;100821.22;;;23.09;67.81
8160;BME280;27404;52.398;9.646;2023-07-13T13:01:09;100827.94;;;23.31;66.75
8160;BME280;27404;52.398;9.646;2023-07-13T13:03:39;100848.00;;;23.19;70.32
8160;BME280;27404;52.398;9.646;2023-07-13T13:08:40;100864.47;;;23.06;94.38
8160;BME280;27404;52.398;9.646;2023-07-13T13:11:08;100862.94;;;23.00;81.47
8160;BME280;27404;52.398;9.646;2023-07-13T13:13:34;100855.31;;;22.92;79.34
8160;BME280;27404;52.398;9.646;2023-07-13T13:18:42;100861.28;;;22.21;81.68
8160;BME280;27404;52.398;9.646;2023-07-13T13:21:09;100866.84;;;22.07;79.62
8160;BME280;27404;52.398;9.646;2023-07-13T13:23:34;100875.06;;;21.70;77.39
8160;BME280;27404;52.398;9.646;2023-07-13T13:26:00;100883.00;;;21.57;76.06
8160;BME280;27404;52.398;9.646;2023-07-13T13:28:27;100893.50;;;21.47;85.88
8160;BME280;27404;52.398;9.646;2023-07-13T13:30:52;100890.75;;;21.27;93.18
8160;BME280;27404;52.398;9.646;2023-07-13T13:33:19;100906.22;;;21.34;96.04
8160;BME280;27404;52.398;9.646;2023-07-13T13:35:46;100914.41;;;21.25;100.00
8160;BME280;27404;52.398;9.646;2023-07-13T13:38:16;100931.84;;;20.19;100.00